Time,TemperatureF,DewpointF,PressureIn,WindDirection,WindDirectionDegrees,WindSpeedMPH,WindSpeedGustMPH,Humidity,HourlyPrecipIn,Conditions,Clouds,dailyrainin,SoftwareType,DateUTC
2013-12-20 00:14:00,34.1,31.0,29.82,North,352,0.0,0.0,89,0.00,,,0.00,weatherlink.com 1.10,2013-12-20 08:14:00,
2013-12-20 00:29:00,33.7,31.0,29.81,NNE,20,0.0,1.0,90,0.00,,,0.00,weatherlink.com 1.10,2013-12-20 08:29:00,
2013-12-20 00:44:00,34.0,31.0,29.81,NNE,30,0.0,1.0,89,0.00,,,0.00,weatherlink.com 1.10,2013-12-20 08:44:00,
2013-12-20 00:59:00,33.3,31.0,29.81,NE,56,0.0,0.0,90,0.00,,,0.00,weatherlink.com 1.10,2013-12-20 08:59:00,
2013-12-20 01:14:00,33.1,31.0,29.81,NNE,32,0.0,0.0,90,0.00,,,0.00,weatherlink.com 1.10,2013-12-20 09:14:00,
2013-12-20 01:29:00,33.2,30.0,29.82,North,11,0.0,0.0,89,0.00,,,0.00,weatherlink.com 1.10,2013-12-20 09:29:00,
2013-12-20 01:44:00,33.0,30.0,29.82,NNE,20,0.0,0.0,89,0.00,,,0.00,weatherlink.com 1.10,2013-12-20 09:44:00,
2013-12-20 01:59:00,32.3,30.0,29.81,NNE,16,0.0,0.0,90,0.00,,,0.00,weatherlink.com 1.10,2013-12-20 09:59:00,
2013-12-20 02:14:00,32.3,30.0,29.81,NNE,25,0.0,0.0,90,0.00,,,0.00,weatherlink.com 1.10,2013-12-20 10:14:00,
2013-12-20 02:29:00,32.9,30.0,29.81,North,10,0.0,0.0,89,0.00,,,0.00,weatherlink.com 1.10,2013-12-20 10:29:00,
2013-12-20 02:45:00,33.2,30.0,29.82,North,9,0.0,0.0,88,0.00,,,0.00,weatherlink.com 1.10,2013-12-20 10:45:00,
2013-12-20 03:00:00,33.3,30.0,29.82,NNE,29,0.0,0.0,87,0.00,,,0.00,weatherlink.com 1.10,2013-12-20 11:00:00,
2013-12-20 03:15:00,33.1,30.0,29.82,NNW,343,0.0,0.0,87,0.00,,,0.00,weatherlink.com 1.10,2013-12-20 11:15:00,
2013-12-20 03:30:00,33.3,30.0,29.82,North,1,0.0,1.0,86,0.00,,,0.00,weatherlink.com 1.10,2013-12-20 11:30:00,
2013-12-20 03:45:00,33.2,30.0,29.82,NNE,28,0.0,0.0,87,0.00,,,0.00,weatherlink.com 1.10,2013-12-20 11:45:00,
2013-12-20 04:00:00,33.4,30.0,29.82,North,11,3.0,3.0,86,0.00,,,0.00,weatherlink.com 1.10,2013-12-20 12:00:00,
2013-12-20 04:15:00,32.6,30.0,29.82,NNE,18,0.0,3.0,88,0.00,,,0.00,weatherlink.com 1.10,2013-12-20 12:15:00,
2013-12-20 04:30:00,33.0,30.0,29.82,North,4,0.0,1.0,88,0.00,,,0.00,weatherlink.com 1.10,2013-12-20 12:30:00,
2013-12-20 04:45:00,33.0,30.0,29.82,NNE,25,0.0,3.0,88,0.00,,,0.00,weatherlink.com 1.10,2013-12-20 12:45:00,
2013-12-20 05:00:00,32.9,30.0,29.82,North,356,0.0,3.0,87,0.00,,,0.00,weatherlink.com 1.10,2013-12-20 13:00:00,
2013-12-20 05:15:00,33.3,29.0,29.83,NNE,22,2.0,4.0,85,0.00,,,0.00,weatherlink.com 1.10,2013-12-20 13:15:00,
2013-12-20 05:30:00,32.9,29.0,29.83,NNE,12,0.0,1.0,86,0.00,,,0.00,weatherlink.com 1.10,2013-12-20 13:30:00,
2013-12-20 05:45:00,33.3,29.0,29.84,NNE,15,0.0,4.0,85,0.00,,,0.00,weatherlink.com 1.10,2013-12-20 13:45:00,
2013-12-20 06:00:00,32.5,29.0,29.84,NNE,24,0.0,0.0,86,0.00,,,0.00,weatherlink.com 1.10,2013-12-20 14:00:00,
2013-12-20 06:15:00,32.8,29.0,29.86,North,360,2.0,4.0,86,0.00,,,0.00,weatherlink.com 1.10,2013-12-20 14:15:00,
2013-12-20 06:30:00,32.9,29.0,29.86,NE,43,0.0,3.0,84,0.00,,,0.00,weatherlink.com 1.10,2013-12-20 14:30:00,
2013-12-20 06:45:00,32.8,29.0,29.87,NE,36,0.0,1.0,84,0.00,,,0.00,weatherlink.com 1.10,2013-12-20 14:45:00,
2013-12-20 07:00:00,32.3,29.0,29.88,North,9,0.0,1.0,86,0.00,,,0.00,weatherlink.com 1.10,2013-12-20 15:00:00,
2013-12-20 07:15:00,31.8,28.0,29.88,NNE,32,0.0,0.0,87,0.00,,,0.00,weatherlink.com 1.10,2013-12-20 15:15:00,
2013-12-20 07:30:00,31.7,29.0,29.88,NNE,16,0.0,0.0,89,0.00,,,0.00,weatherlink.com 1.10,2013-12-20 15:30:00,
2013-12-20 07:45:00,32.7,29.0,29.89,NNE,29,0.0,0.0,87,0.00,,,0.00,weatherlink.com 1.10,2013-12-20 15:45:00,
2013-12-20 08:00:00,33.9,30.0,29.90,NNE,29,0.0,0.0,86,0.00,,,0.00,weatherlink.com 1.10,2013-12-20 16:00:00,
2013-12-20 08:15:00,34.4,31.0,29.89,NNE,26,0.0,0.0,87,0.00,,,0.00,weatherlink.com 1.10,2013-12-20 16:15:00,
2013-12-20 08:30:00,36.5,32.0,29.91,NNE,15,0.0,0.0,83,0.00,,,0.00,weatherlink.com 1.10,2013-12-20 16:30:00,
2013-12-20 08:45:00,37.7,32.0,29.92,NNW,341,0.0,0.0,80,0.00,,,0.00,weatherlink.com 1.10,2013-12-20 16:45:00,
2013-12-20 09:00:00,38.6,31.0,29.92,NNW,330,0.0,0.0,75,0.00,,,0.00,weatherlink.com 1.10,2013-12-20 17:00:00,
2013-12-20 09:15:00,39.3,31.0,29.93,NNW,338,0.0,0.0,72,0.00,,,0.00,weatherlink.com 1.10,2013-12-20 17:15:00,
2013-12-20 09:30:00,39.6,32.0,29.93,South,170,0.0,0.0,74,0.00,,,0.00,weatherlink.com 1.10,2013-12-20 17:30:00,
2013-12-20 09:45:00,40.3,33.0,29.94,SW,224,0.0,0.0,74,0.00,,,0.00,weatherlink.com 1.10,2013-12-20 17:45:00,
2013-12-20 10:00:00,40.9,29.0,29.93,SW,219,0.0,0.0,64,0.00,,,0.00,weatherlink.com 1.10,2013-12-20 18:00:00,
2013-12-20 10:15:00,41.2,36.0,29.93,SW,217,0.0,0.0,83,0.00,,,0.00,weatherlink.com 1.10,2013-12-20 18:15:00,
2013-12-20 10:31:00,41.6,37.0,29.93,SW,236,0.0,2.0,82,0.00,,,0.00,weatherlink.com 1.10,2013-12-20 18:31:00,
2013-12-20 10:46:00,41.7,34.0,29.93,SSW,196,0.0,0.0,75,0.00,,,0.00,weatherlink.com 1.10,2013-12-20 18:46:00,
2013-12-20 11:01:00,42.2,37.0,29.93,SSE,165,0.0,3.0,81,0.00,,,0.00,weatherlink.com 1.10,2013-12-20 19:01:00,
2013-12-20 11:16:00,42.8,37.0,29.93,South,169,0.0,1.0,79,0.00,,,0.00,weatherlink.com 1.10,2013-12-20 19:16:00,
2013-12-20 11:31:00,43.1,32.0,29.92,SW,214,0.0,4.0,64,0.00,,,0.00,weatherlink.com 1.10,2013-12-20 19:31:00,
2013-12-20 11:46:00,44.2,33.0,29.91,SSW,210,0.0,4.0,65,0.00,,,0.00,weatherlink.com 1.10,2013-12-20 19:46:00,
2013-12-20 12:01:00,44.9,33.0,29.91,ESE,112,0.0,2.0,63,0.00,,,0.00,weatherlink.com 1.10,2013-12-20 20:01:00,
2013-12-20 12:16:00,45.2,35.0,29.91,SSW,208,0.0,6.0,67,0.00,,,0.00,weatherlink.com 1.10,2013-12-20 20:16:00,
2013-12-20 12:31:00,44.4,34.0,29.91,SSW,204,0.0,2.0,68,0.00,,,0.00,weatherlink.com 1.10,2013-12-20 20:31:00,
2013-12-20 12:46:00,45.0,36.0,29.91,SSE,168,0.0,3.0,70,0.00,,,0.00,weatherlink.com 1.10,2013-12-20 20:46:00,
2013-12-20 13:01:00,45.6,34.0,29.91,WSW,240,0.0,0.0,64,0.00,,,0.00,weatherlink.com 1.10,2013-12-20 21:01:00,
2013-12-20 13:16:00,46.3,33.0,29.90,SSW,208,0.0,4.0,61,0.00,,,0.00,weatherlink.com 1.10,2013-12-20 21:16:00,
2013-12-20 13:31:00,45.3,34.0,29.91,SW,221,0.0,7.0,65,0.00,,,0.00,weatherlink.com 1.10,2013-12-20 21:31:00,
2013-12-20 13:46:00,45.0,34.0,29.91,SSW,212,3.0,7.0,66,0.00,,,0.00,weatherlink.com 1.10,2013-12-20 21:46:00,
2013-12-20 14:01:00,45.2,34.0,29.91,SSW,193,0.0,4.0,66,0.00,,,0.00,weatherlink.com 1.10,2013-12-20 22:01:00,
2013-12-20 14:16:00,45.4,35.0,29.91,WNW,297,0.0,1.0,66,0.00,,,0.00,weatherlink.com 1.10,2013-12-20 22:16:00,
2013-12-20 14:31:00,45.3,35.0,29.91,WSW,238,0.0,3.0,67,0.00,,,0.00,weatherlink.com 1.10,2013-12-20 22:31:00,
2013-12-20 14:46:00,45.6,34.0,29.91,SSW,208,4.0,4.0,64,0.00,,,0.00,weatherlink.com 1.10,2013-12-20 22:46:00,
2013-12-20 15:01:00,45.1,33.0,29.91,SSW,210,0.0,6.0,63,0.00,,,0.00,weatherlink.com 1.10,2013-12-20 23:01:00,
2013-12-20 15:16:00,44.5,33.0,29.91,SW,224,0.0,5.0,64,0.00,,,0.00,weatherlink.com 1.10,2013-12-20 23:16:00,
2013-12-20 15:31:00,44.9,33.0,29.91,SW,217,0.0,2.0,63,0.00,,,0.00,weatherlink.com 1.10,2013-12-20 23:31:00,
2013-12-20 15:46:00,44.3,33.0,29.91,SSW,212,0.0,0.0,65,0.00,,,0.00,weatherlink.com 1.10,2013-12-20 23:46:00,
2013-12-20 16:01:00,43.2,33.0,29.92,SSW,212,0.0,0.0,68,0.00,,,0.00,weatherlink.com 1.10,2013-12-21 00:01:00,
2013-12-20 16:16:00,42.2,33.0,29.92,SSW,210,0.0,0.0,71,0.00,,,0.00,weatherlink.com 1.10,2013-12-21 00:16:00,
2013-12-20 16:31:00,41.0,33.0,29.92,SE,136,0.0,0.0,73,0.00,,,0.00,weatherlink.com 1.10,2013-12-21 00:31:00,
2013-12-20 16:46:00,39.5,33.0,29.92,ESE,117,0.0,0.0,76,0.00,,,0.00,weatherlink.com 1.10,2013-12-21 00:46:00,
2013-12-20 17:01:00,37.2,32.0,29.93,NNE,23,0.0,0.0,80,0.00,,,0.00,weatherlink.com 1.10,2013-12-21 01:01:00,
2013-12-20 17:17:00,35.5,31.0,29.94,North,11,0.0,0.0,85,0.00,,,0.00,weatherlink.com 1.10,2013-12-21 01:17:00,
2013-12-20 17:32:00,34.9,31.0,29.93,NE,47,0.0,0.0,87,0.00,,,0.00,weatherlink.com 1.10,2013-12-21 01:32:00,
2013-12-20 17:47:00,35.0,31.0,29.93,NE,53,0.0,0.0,86,0.00,,,0.00,weatherlink.com 1.10,2013-12-21 01:47:00,
2013-12-20 18:02:00,34.6,31.0,29.94,East,92,0.0,0.0,86,0.00,,,0.00,weatherlink.com 1.10,2013-12-21 02:02:00,
2013-12-20 18:17:00,33.8,30.0,29.94,NNE,20,0.0,0.0,86,0.00,,,0.00,weatherlink.com 1.10,2013-12-21 02:17:00,
2013-12-20 18:32:00,33.3,30.0,29.95,NNE,25,0.0,0.0,88,0.00,,,0.00,weatherlink.com 1.10,2013-12-21 02:32:00,
2013-12-20 18:47:00,33.1,30.0,29.96,NNE,13,0.0,0.0,89,0.00,,,0.00,weatherlink.com 1.10,2013-12-21 02:47:00,
2013-12-20 19:02:00,32.5,29.0,29.96,NNE,27,0.0,0.0,88,0.00,,,0.00,weatherlink.com 1.10,2013-12-21 03:02:00,
2013-12-20 19:17:00,32.2,29.0,29.95,NNE,24,0.0,0.0,89,0.00,,,0.00,weatherlink.com 1.10,2013-12-21 03:17:00,
2013-12-20 19:32:00,32.2,29.0,29.97,North,3,0.0,0.0,88,0.00,,,0.00,weatherlink.com 1.10,2013-12-21 03:32:00,
2013-12-20 19:47:00,31.7,29.0,29.97,NNE,26,0.0,0.0,89,0.00,,,0.00,weatherlink.com 1.10,2013-12-21 03:47:00,
2013-12-20 20:02:00,31.8,28.0,29.97,NNE,15,0.0,0.0,87,0.00,,,0.00,weatherlink.com 1.10,2013-12-21 04:02:00,
2013-12-20 20:17:00,31.5,29.0,29.98,NNE,22,0.0,0.0,89,0.00,,,0.00,weatherlink.com 1.10,2013-12-21 04:17:00,
2013-12-20 20:32:00,31.0,28.0,29.98,North,11,0.0,0.0,89,0.00,,,0.00,weatherlink.com 1.10,2013-12-21 04:32:00,
2013-12-20 20:47:00,30.4,28.0,29.98,NE,39,0.0,0.0,90,0.00,,,0.00,weatherlink.com 1.10,2013-12-21 04:47:00,
2013-12-20 21:17:00,30.7,28.0,29.98,NNE,15,0.0,2.0,90,0.00,,,0.00,weatherlink.com 1.10,2013-12-21 05:17:00,
2013-12-20 21:32:00,30.6,28.0,29.98,NNE,13,0.0,0.0,91,0.00,,,0.00,weatherlink.com 1.10,2013-12-21 05:32:00,
2013-12-20 21:47:00,29.9,28.0,29.99,NNE,26,0.0,0.0,92,0.00,,,0.00,weatherlink.com 1.10,2013-12-21 05:47:00,
2013-12-20 22:02:00,30.1,28.0,30.00,NNE,20,0.0,0.0,92,0.00,,,0.00,weatherlink.com 1.10,2013-12-21 06:02:00,
2013-12-20 22:17:00,30.6,29.0,30.01,NNE,28,0.0,2.0,93,0.00,,,0.00,weatherlink.com 1.10,2013-12-21 06:17:00,
2013-12-20 22:32:00,32.3,31.0,30.00,North,5,0.0,0.0,94,0.00,,,0.00,weatherlink.com 1.10,2013-12-21 06:32:00,
2013-12-20 22:47:00,33.3,32.0,30.00,ENE,68,0.0,0.0,93,0.00,,,0.00,weatherlink.com 1.10,2013-12-21 06:47:00,
2013-12-20 23:02:00,33.9,32.0,30.00,SSW,203,0.0,0.0,93,0.00,,,0.00,weatherlink.com 1.10,2013-12-21 07:02:00,
2013-12-20 23:17:00,34.6,33.0,30.00,NNE,27,0.0,0.0,93,0.00,,,0.00,weatherlink.com 1.10,2013-12-21 07:17:00,
2013-12-20 23:32:00,34.7,33.0,29.98,NNE,29,0.0,0.0,93,0.00,,,0.00,weatherlink.com 1.10,2013-12-21 07:32:00,
2013-12-20 23:47:00,34.5,33.0,29.98,North,8,0.0,0.0,93,0.00,,,0.00,weatherlink.com 1.10,2013-12-21 07:47:00,